sensor_id;sensor_type;location;lat;lon;timestamp;temperature;humidity
83964;DHT22;73994;50.868;5.420;2024-02-04T00:01:49;9.20;87.50
83964;DHT22;73994;50.868;5.420;2024-02-04T00:04:15;9.20;87.50
83964;DHT22;73994;50.868;5.420;2024-02-04T00:06:40;9.20;87.50
83964;DHT22;73994;50.868;5.420;2024-02-04T00:09:06;9.20;87.50
83964;DHT22;73994;50.868;5.420;2024-02-04T00:11:32;9.20;87.50
83964;DHT22;73994;50.868;5.420;2024-02-04T00:13:58;9.20;87.50
83964;DHT22;73994;50.868;5.420;2024-02-04T00:16:23;9.20;87.50
83964;DHT22;73994;50.868;5.420;2024-02-04T00:18:49;9.20;87.60
83964;DHT22;73994;50.868;5.420;2024-02-04T00:21:14;9.20;87.60
83964;DHT22;73994;50.868;5.420;2024-02-04T00:23:40;9.20;87.50
83964;DHT22;73994;50.868;5.420;2024-02-04T00:26:06;9.20;87.50
83964;DHT22;73994;50.868;5.420;2024-02-04T00:28:31;9.20;87.60
83964;DHT22;73994;50.868;5.420;2024-02-04T00:30:57;9.20;87.60
83964;DHT22;73994;50.868;5.420;2024-02-04T00:33:24;9.20;87.60
83964;DHT22;73994;50.868;5.420;2024-02-04T00:35:50;9.20;87.60
83964;DHT22;73994;50.868;5.420;2024-02-04T00:38:16;9.20;87.60
83964;DHT22;73994;50.868;5.420;2024-02-04T00:40:42;9.20;87.60
83964;DHT22;73994;50.868;5.420;2024-02-04T00:43:08;9.20;87.50
83964;DHT22;73994;50.868;5.420;2024-02-04T00:45:33;9.20;87.60
83964;DHT22;73994;50.868;5.420;2024-02-04T00:47:59;9.20;87.60
83964;DHT22;73994;50.868;5.420;2024-02-04T00:50:25;9.20;87.60
83964;DHT22;73994;50.868;5.420;2024-02-04T00:52:50;9.20;87.60
83964;DHT22;73994;50.868;5.420;2024-02-04T00:55:19;9.20;87.60
83964;DHT22;73994;50.868;5.420;2024-02-04T00:57:45;9.20;87.60
83964;DHT22;73994;50.868;5.420;2024-02-04T01:00:11;9.20;87.70
83964;DHT22;73994;50.868;5.420;2024-02-04T01:02:38;9.20;87.70
83964;DHT22;73994;50.868;5.420;2024-02-04T01:05:05;9.20;87.60
83964;DHT22;73994;50.868;5.420;2024-02-04T01:07:31;9.20;87.70
83964;DHT22;73994;50.868;5.420;2024-02-04T01:09:56;9.20;87.60
83964;DHT22;73994;50.868;5.420;2024-02-04T01:12:22;9.20;87.70
83964;DHT22;73994;50.868;5.420;2024-02-04T01:14:47;9.20;87.70
83964;DHT22;73994;50.868;5.420;2024-02-04T01:17:13;9.20;87.70
83964;DHT22;73994;50.868;5.420;2024-02-04T01:19:39;9.20;87.70
83964;DHT22;73994;50.868;5.420;2024-02-04T01:22:04;9.20;87.60
83964;DHT22;73994;50.868;5.420;2024-02-04T01:24:31;9.20;87.70
83964;DHT22;73994;50.868;5.420;2024-02-04T01:26:57;9.20;87.70
83964;DHT22;73994;50.868;5.420;2024-02-04T01:29:23;9.20;87.60
83964;DHT22;73994;50.868;5.420;2024-02-04T01:31:48;9.20;87.70
83964;DHT22;73994;50.868;5.420;2024-02-04T01:34:14;9.20;87.70
83964;DHT22;73994;50.868;5.420;2024-02-04T01:36:40;9.30;87.70
83964;DHT22;73994;50.868;5.420;2024-02-04T01:39:05;9.20;87.70
83964;DHT22;73994;50.868;5.420;2024-02-04T01:41:31;9.30;87.70
83964;DHT22;73994;50.868;5.420;2024-02-04T01:43:57;9.20;87.70
83964;DHT22;73994;50.868;5.420;2024-02-04T01:46:22;9.20;87.70
83964;DHT22;73994;50.868;5.420;2024-02-04T01:48:49;9.30;87.80
83964;DHT22;73994;50.868;5.420;2024-02-04T01:51:16;9.30;87.70
83964;DHT22;73994;50.868;5.420;2024-02-04T01:53:44;9.40;87.70
83964;DHT22;73994;50.868;5.420;2024-02-04T01:56:13;9.40;87.70
83964;DHT22;73994;50.868;5.420;2024-02-04T01:58:39;9.30;87.70
83964;DHT22;73994;50.868;5.420;2024-02-04T02:01:05;9.30;87.70
83964;DHT22;73994;50.868;5.420;2024-02-04T02:03:34;9.40;87.80
83964;DHT22;73994;50.868;5.420;2024-02-04T02:06:01;9.40;87.80
83964;DHT22;73994;50.868;5.420;2024-02-04T02:08:27;9.40;87.70
83964;DHT22;73994;50.868;5.420;2024-02-04T02:11:13;9.40;87.70
83964;DHT22;73994;50.868;5.420;2024-02-04T02:13:41;9.40;87.70
83964;DHT22;73994;50.868;5.420;2024-02-04T02:16:13;9.40;87.80
83964;DHT22;73994;50.868;5.420;2024-02-04T02:18:48;9.40;87.80
83964;DHT22;73994;50.868;5.420;2024-02-04T02:21:26;9.40;87.70
83964;DHT22;73994;50.868;5.420;2024-02-04T02:24:11;9.40;87.80
83964;DHT22;73994;50.868;5.420;2024-02-04T02:26:37;9.40;87.80
83964;DHT22;73994;50.868;5.420;2024-02-04T02:29:07;9.40;87.70
83964;DHT22;73994;50.868;5.420;2024-02-04T02:31:37;9.40;87.70
83964;DHT22;73994;50.868;5.420;2024-02-04T02:34:04;9.40;87.70
83964;DHT22;73994;50.868;5.420;2024-02-04T02:36:35;9.40;87.70
83964;DHT22;73994;50.868;5.420;2024-02-04T02:39:13;9.40;87.70
83964;DHT22;73994;50.868;5.420;2024-02-04T02:41:42;9.40;87.70
83964;DHT22;73994;50.868;5.420;2024-02-04T02:44:09;9.40;87.80
83964;DHT22;73994;50.868;5.420;2024-02-04T02:46:37;9.40;87.80
83964;DHT22;73994;50.868;5.420;2024-02-04T02:49:03;9.40;87.80
83964;DHT22;73994;50.868;5.420;2024-02-04T02:51:29;9.40;87.80
83964;DHT22;73994;50.868;5.420;2024-02-04T02:53:55;9.40;87.80
83964;DHT22;73994;50.868;5.420;2024-02-04T02:56:21;9.40;87.70
83964;DHT22;73994;50.868;5.420;2024-02-04T02:58:46;9.40;87.70
83964;DHT22;73994;50.868;5.420;2024-02-04T03:01:12;9.40;87.80
83964;DHT22;73994;50.868;5.420;2024-02-04T03:03:38;9.40;87.80
83964;DHT22;73994;50.868;5.420;2024-02-04T03:06:03;9.40;87.70
83964;DHT22;73994;50.868;5.420;2024-02-04T03:08:29;9.40;87.80
83964;DHT22;73994;50.868;5.420;2024-02-04T03:10:55;9.40;87.70
83964;DHT22;73994;50.868;5.420;2024-02-04T03:13:20;9.40;87.80
83964;DHT22;73994;50.868;5.420;2024-02-04T03:15:46;9.40;87.80
83964;DHT22;73994;50.868;5.420;2024-02-04T03:18:11;9.40;87.80
83964;DHT22;73994;50.868;5.420;2024-02-04T03:20:37;9.40;87.80
83964;DHT22;73994;50.868;5.420;2024-02-04T03:23:03;9.40;87.70
83964;DHT22;73994;50.868;5.420;2024-02-04T03:25:28;9.40;87.80
83964;DHT22;73994;50.868;5.420;2024-02-04T03:27:55;9.40;87.80
83964;DHT22;73994;50.868;5.420;2024-02-04T03:30:20;9.40;87.70
83964;DHT22;73994;50.868;5.420;2024-02-04T03:32:47;9.40;87.80
83964;DHT22;73994;50.868;5.420;2024-02-04T03:35:12;9.40;87.70
83964;DHT22;73994;50.868;5.420;2024-02-04T03:37:38;9.40;87.80
83964;DHT22;73994;50.868;5.420;2024-02-04T03:40:04;9.40;87.80
83964;DHT22;73994;50.868;5.420;2024-02-04T03:42:30;9.40;87.80
83964;DHT22;73994;50.868;5.420;2024-02-04T03:44:56;9.40;87.80
83964;DHT22;73994;50.868;5.420;2024-02-04T03:47:21;9.40;87.80
83964;DHT22;73994;50.868;5.420;2024-02-04T03:49:47;9.40;87.80
83964;DHT22;73994;50.868;5.420;2024-02-04T03:52:13;9.40;87.80
83964;DHT22;73994;50.868;5.420;2024-02-04T03:54:38;9.40;87.70
83964;DHT22;73994;50.868;5.420;2024-02-04T03:57:04;9.40;87.70
83964;DHT22;73994;50.868;5.420;2024-02-04T03:59:30;9.40;87.70
83964;DHT22;73994;50.868;5.420;2024-02-04T04:01:55;9.40;87.70
83964;DHT22;73994;50.868;5.420;2024-02-04T04:04:23;9.40;87.70
83964;DHT22;73994;50.868;5.420;2024-02-04T04:06:49;9.40;87.70
83964;DHT22;73994;50.868;5.420;2024-02-04T04:09:14;9.40;87.70
83964;DHT22;73994;50.868;5.420;2024-02-04T04:11:40;9.40;87.80
83964;DHT22;73994;50.868;5.420;2024-02-04T04:14:06;9.40;87.70
83964;DHT22;73994;50.868;5.420;2024-02-04T04:16:31;9.40;87.80
83964;DHT22;73994;50.868;5.420;2024-02-04T04:18:57;9.40;87.70
83964;DHT22;73994;50.868;5.420;2024-02-04T04:21:24;9.40;87.70
83964;DHT22;73994;50.868;5.420;2024-02-04T04:23:50;9.40;87.70
83964;DHT22;73994;50.868;5.420;2024-02-04T04:26:15;9.40;87.80
83964;DHT22;73994;50.868;5.420;2024-02-04T04:28:41;9.50;87.80
83964;DHT22;73994;50.868;5.420;2024-02-04T04:31:07;9.40;87.70
83964;DHT22;73994;50.868;5.420;2024-02-04T04:33:32;9.40;87.60
83964;DHT22;73994;50.868;5.420;2024-02-04T04:35:58;9.40;87.60
83964;DHT22;73994;50.868;5.420;2024-02-04T04:38:24;9.40;87.70
83964;DHT22;73994;50.868;5.420;2024-02-04T04:40:49;9.50;87.70
83964;DHT22;73994;50.868;5.420;2024-02-04T04:43:15;9.50;87.80
83964;DHT22;73994;50.868;5.420;2024-02-04T04:45:41;9.50;87.70
83964;DHT22;73994;50.868;5.420;2024-02-04T04:48:07;9.50;87.70
83964;DHT22;73994;50.868;5.420;2024-02-04T04:50:35;9.40;87.70
83964;DHT22;73994;50.868;5.420;2024-02-04T04:53:01;9.40;87.80
83964;DHT22;73994;50.868;5.420;2024-02-04T04:55:27;9.40;87.70
83964;DHT22;73994;50.868;5.420;2024-02-04T04:57:53;9.40;87.80
83964;DHT22;73994;50.868;5.420;2024-02-04T05:00:18;9.40;87.70
83964;DHT22;73994;50.868;5.420;2024-02-04T05:02:45;9.40;87.70
83964;DHT22;73994;50.868;5.420;2024-02-04T05:05:11;9.40;87.70
83964;DHT22;73994;50.868;5.420;2024-02-04T05:07:37;9.40;87.80
83964;DHT22;73994;50.868;5.420;2024-02-04T05:10:03;9.50;87.70
83964;DHT22;73994;50.868;5.420;2024-02-04T05:12:30;9.50;87.70
83964;DHT22;73994;50.868;5.420;2024-02-04T05:14:55;9.40;87.70
83964;DHT22;73994;50.868;5.420;2024-02-04T05:17:22;9.50;87.70
83964;DHT22;73994;50.868;5.420;2024-02-04T05:19:47;9.40;87.70
83964;DHT22;73994;50.868;5.420;2024-02-04T05:22:13;9.40;87.70
83964;DHT22;73994;50.868;5.420;2024-02-04T05:24:39;9.40;87.70
83964;DHT22;73994;50.868;5.420;2024-02-04T05:27:05;9.40;87.70
83964;DHT22;73994;50.868;5.420;2024-02-04T05:29:31;9.50;87.70
83964;DHT22;73994;50.868;5.420;2024-02-04T05:31:57;9.40;87.70
83964;DHT22;73994;50.868;5.420;2024-02-04T05:34:22;9.40;87.70
83964;DHT22;73994;50.868;5.420;2024-02-04T05:36:48;9.40;87.70
83964;DHT22;73994;50.868;5.420;2024-02-04T05:39:15;9.40;87.70
83964;DHT22;73994;50.868;5.420;2024-02-04T05:41:42;9.40;87.70
83964;DHT22;73994;50.868;5.420;2024-02-04T05:44:08;9.40;87.80
83964;DHT22;73994;50.868;5.420;2024-02-04T05:46:37;9.40;87.70
83964;DHT22;73994;50.868;5.420;2024-02-04T05:49:04;9.40;87.70
83964;DHT22;73994;50.868;5.420;2024-02-04T05:51:31;9.40;87.70
83964;DHT22;73994;50.868;5.420;2024-02-04T05:53:57;9.40;87.70
83964;DHT22;73994;50.868;5.420;2024-02-04T05:56:23;9.40;87.70
83964;DHT22;73994;50.868;5.420;2024-02-04T05:58:49;9.40;87.70
83964;DHT22;73994;50.868;5.420;2024-02-04T06:01:15;9.40;87.70
83964;DHT22;73994;50.868;5.420;2024-02-04T06:03:43;9.40;87.70
83964;DHT22;73994;50.868;5.420;2024-02-04T06:06:15;9.40;87.70
83964;DHT22;73994;50.868;5.420;2024-02-04T06:08:42;9.40;87.70
83964;DHT22;73994;50.868;5.420;2024-02-04T06:11:14;9.40;87.70
83964;DHT22;73994;50.868;5.420;2024-02-04T06:13:40;9.40;87.70
83964;DHT22;73994;50.868;5.420;2024-02-04T06:16:07;9.40;87.80
83964;DHT22;73994;50.868;5.420;2024-02-04T06:18:32;9.40;87.80
83964;DHT22;73994;50.868;5.420;2024-02-04T06:20:58;9.40;87.80
83964;DHT22;73994;50.868;5.420;2024-02-04T06:23:24;9.40;87.80
83964;DHT22;73994;50.868;5.420;2024-02-04T06:25:49;9.40;87.80
83964;DHT22;73994;50.868;5.420;2024-02-04T06:28:15;9.40;87.80
83964;DHT22;73994;50.868;5.420;2024-02-04T06:30:41;9.40;87.70
83964;DHT22;73994;50.868;5.420;2024-02-04T06:33:06;9.40;87.70
83964;DHT22;73994;50.868;5.420;2024-02-04T06:35:32;9.40;87.70
83964;DHT22;73994;50.868;5.420;2024-02-04T06:37:58;9.30;87.70
83964;DHT22;73994;50.868;5.420;2024-02-04T06:40:24;9.40;87.80
83964;DHT22;73994;50.868;5.420;2024-02-04T06:42:49;9.40;87.80
83964;DHT22;73994;50.868;5.420;2024-02-04T06:45:15;9.40;87.80
83964;DHT22;73994;50.868;5.420;2024-02-04T06:47:43;9.40;87.80
83964;DHT22;73994;50.868;5.420;2024-02-04T06:50:10;9.40;87.80
83964;DHT22;73994;50.868;5.420;2024-02-04T06:52:40;9.40;87.70
83964;DHT22;73994;50.868;5.420;2024-02-04T06:55:06;9.40;87.80
83964;DHT22;73994;50.868;5.420;2024-02-04T06:57:32;9.40;87.80
83964;DHT22;73994;50.868;5.420;2024-02-04T06:59:57;9.40;87.80
83964;DHT22;73994;50.868;5.420;2024-02-04T07:02:23;9.40;87.80
83964;DHT22;73994;50.868;5.420;2024-02-04T07:04:49;9.40;87.70
83964;DHT22;73994;50.868;5.420;2024-02-04T07:07:14;9.40;87.70
83964;DHT22;73994;50.868;5.420;2024-02-04T07:09:40;9.40;87.70
83964;DHT22;73994;50.868;5.420;2024-02-04T07:12:06;9.40;87.80
83964;DHT22;73994;50.868;5.420;2024-02-04T07:14:31;9.40;87.80
83964;DHT22;73994;50.868;5.420;2024-02-04T07:16:57;9.40;87.70
83964;DHT22;73994;50.868;5.420;2024-02-04T07:19:23;9.40;87.80
83964;DHT22;73994;50.868;5.420;2024-02-04T07:21:48;9.40;87.80
83964;DHT22;73994;50.868;5.420;2024-02-04T07:24:14;9.40;87.70
83964;DHT22;73994;50.868;5.420;2024-02-04T07:26:40;9.40;87.80
83964;DHT22;73994;50.868;5.420;2024-02-04T07:29:05;9.40;87.70
83964;DHT22;73994;50.868;5.420;2024-02-04T07:31:31;9.40;87.70
83964;DHT22;73994;50.868;5.420;2024-02-04T07:33:57;9.40;87.70
83964;DHT22;73994;50.868;5.420;2024-02-04T07:36:22;9.50;87.80
83964;DHT22;73994;50.868;5.420;2024-02-04T07:38:48;9.40;87.70
83964;DHT22;73994;50.868;5.420;2024-02-04T07:41:14;9.40;87.70
83964;DHT22;73994;50.868;5.420;2024-02-04T07:43:41;9.40;87.70
83964;DHT22;73994;50.868;5.420;2024-02-04T07:46:08;9.50;87.70
83964;DHT22;73994;50.868;5.420;2024-02-04T07:48:34;9.50;87.80
83964;DHT22;73994;50.868;5.420;2024-02-04T07:51:00;9.50;87.70
83964;DHT22;73994;50.868;5.420;2024-02-04T07:53:25;9.50;87.60
83964;DHT22;73994;50.868;5.420;2024-02-04T07:55:51;9.50;87.70
83964;DHT22;73994;50.868;5.420;2024-02-04T07:58:17;9.50;87.70
83964;DHT22;73994;50.868;5.420;2024-02-04T08:00:42;9.50;87.70
83964;DHT22;73994;50.868;5.420;2024-02-04T08:03:08;9.50;87.60
83964;DHT22;73994;50.868;5.420;2024-02-04T08:05:34;9.50;87.60
83964;DHT22;73994;50.868;5.420;2024-02-04T08:08:02;9.50;87.60
83964;DHT22;73994;50.868;5.420;2024-02-04T08:10:29;9.50;87.60
83964;DHT22;73994;50.868;5.420;2024-02-04T08:12:54;9.50;87.60
83964;DHT22;73994;50.868;5.420;2024-02-04T08:15:20;9.50;87.60
83964;DHT22;73994;50.868;5.420;2024-02-04T08:17:46;9.50;87.50
83964;DHT22;73994;50.868;5.420;2024-02-04T08:20:12;9.60;87.50
83964;DHT22;73994;50.868;5.420;2024-02-04T08:22:38;9.50;87.50
83964;DHT22;73994;50.868;5.420;2024-02-04T08:25:06;9.50;87.50
83964;DHT22;73994;50.868;5.420;2024-02-04T08:27:32;9.50;87.40
83964;DHT22;73994;50.868;5.420;2024-02-04T08:29:58;9.50;87.40
83964;DHT22;73994;50.868;5.420;2024-02-04T08:32:24;9.60;87.30
83964;DHT22;73994;50.868;5.420;2024-02-04T08:34:49;9.60;87.20
83964;DHT22;73994;50.868;5.420;2024-02-04T08:37:15;9.60;87.30
83964;DHT22;73994;50.868;5.420;2024-02-04T08:39:41;9.60;87.20
83964;DHT22;73994;50.868;5.420;2024-02-04T08:42:06;9.60;87.10
83964;DHT22;73994;50.868;5.420;2024-02-04T08:44:32;9.60;86.80
83964;DHT22;73994;50.868;5.420;2024-02-04T08:46:57;9.60;86.50
83964;DHT22;73994;50.868;5.420;2024-02-04T08:49:23;9.60;86.30
83964;DHT22;73994;50.868;5.420;2024-02-04T08:51:49;9.60;86.30
83964;DHT22;73994;50.868;5.420;2024-02-04T08:54:15;9.70;86.30
83964;DHT22;73994;50.868;5.420;2024-02-04T08:56:40;9.70;86.10
83964;DHT22;73994;50.868;5.420;2024-02-04T08:59:06;9.70;85.90
83964;DHT22;73994;50.868;5.420;2024-02-04T09:01:33;9.80;86.20
83964;DHT22;73994;50.868;5.420;2024-02-04T09:03:59;10.00;85.60
83964;DHT22;73994;50.868;5.420;2024-02-04T09:06:24;10.00;85.60
83964;DHT22;73994;50.868;5.420;2024-02-04T09:08:50;10.00;85.30
83964;DHT22;73994;50.868;5.420;2024-02-04T09:11:17;10.00;85.40
83964;DHT22;73994;50.868;5.420;2024-02-04T09:13:44;10.00;85.50
83964;DHT22;73994;50.868;5.420;2024-02-04T09:16:10;10.00;85.30
83964;DHT22;73994;50.868;5.420;2024-02-04T09:18:36;10.00;85.40
83964;DHT22;73994;50.868;5.420;2024-02-04T09:21:02;10.00;85.40
83964;DHT22;73994;50.868;5.420;2024-02-04T09:23:27;10.00;85.70
83964;DHT22;73994;50.868;5.420;2024-02-04T09:25:53;10.00;85.70
83964;DHT22;73994;50.868;5.420;2024-02-04T09:28:19;9.90;85.40
83964;DHT22;73994;50.868;5.420;2024-02-04T09:30:45;10.00;85.50
83964;DHT22;73994;50.868;5.420;2024-02-04T09:33:13;10.00;85.60
83964;DHT22;73994;50.868;5.420;2024-02-04T09:35:39;10.00;85.40
83964;DHT22;73994;50.868;5.420;2024-02-04T09:38:04;10.00;85.00
83964;DHT22;73994;50.868;5.420;2024-02-04T09:40:30;10.00;85.40
83964;DHT22;73994;50.868;5.420;2024-02-04T09:42:58;10.00;85.00
83964;DHT22;73994;50.868;5.420;2024-02-04T09:45:23;10.10;84.80
83964;DHT22;73994;50.868;5.420;2024-02-04T09:47:50;10.10;84.70
83964;DHT22;73994;50.868;5.420;2024-02-04T09:50:20;10.00;84.60
83964;DHT22;73994;50.868;5.420;2024-02-04T09:52:49;10.00;84.60
83964;DHT22;73994;50.868;5.420;2024-02-04T09:55:16;10.00;84.60
83964;DHT22;73994;50.868;5.420;2024-02-04T09:57:44;10.00;85.00
83964;DHT22;73994;50.868;5.420;2024-02-04T10:00:10;10.00;84.80
83964;DHT22;73994;50.868;5.420;2024-02-04T10:02:36;9.90;85.00
83964;DHT22;73994;50.868;5.420;2024-02-04T10:05:02;10.00;84.70
83964;DHT22;73994;50.868;5.420;2024-02-04T10:07:28;10.00;84.70
83964;DHT22;73994;50.868;5.420;2024-02-04T10:09:55;10.00;84.50
83964;DHT22;73994;50.868;5.420;2024-02-04T10:12:21;10.10;84.20
83964;DHT22;73994;50.868;5.420;2024-02-04T10:14:49;10.20;84.70
83964;DHT22;73994;50.868;5.420;2024-02-04T10:17:15;10.20;84.10
83964;DHT22;73994;50.868;5.420;2024-02-04T10:19:41;10.40;83.90
83964;DHT22;73994;50.868;5.420;2024-02-04T10:22:07;10.40;83.80
83964;DHT22;73994;50.868;5.420;2024-02-04T10:24:32;10.40;83.40
83964;DHT22;73994;50.868;5.420;2024-02-04T10:26:58;10.30;83.00
83964;DHT22;73994;50.868;5.420;2024-02-04T10:29:24;10.30;82.90
83964;DHT22;73994;50.868;5.420;2024-02-04T10:31:56;10.30;82.70
83964;DHT22;73994;50.868;5.420;2024-02-04T10:34:25;10.30;82.60
83964;DHT22;73994;50.868;5.420;2024-02-04T10:36:51;10.20;82.50
83964;DHT22;73994;50.868;5.420;2024-02-04T10:39:16;10.30;82.80
83964;DHT22;73994;50.868;5.420;2024-02-04T10:41:49;10.30;81.70
83964;DHT22;73994;50.868;5.420;2024-02-04T10:44:21;10.30;82.20
83964;DHT22;73994;50.868;5.420;2024-02-04T10:46:47;10.20;82.90
83964;DHT22;73994;50.868;5.420;2024-02-04T10:49:15;10.30;83.10
83964;DHT22;73994;50.868;5.420;2024-02-04T10:51:41;10.40;83.00
83964;DHT22;73994;50.868;5.420;2024-02-04T10:54:08;10.40;82.30
83964;DHT22;73994;50.868;5.420;2024-02-04T10:56:41;10.40;83.20
83964;DHT22;73994;50.868;5.420;2024-02-04T10:59:08;10.40;82.10
83964;DHT22;73994;50.868;5.420;2024-02-04T11:01:35;10.30;82.40
83964;DHT22;73994;50.868;5.420;2024-02-04T11:04:02;10.30;82.80
83964;DHT22;73994;50.868;5.420;2024-02-04T11:06:29;10.30;82.70
83964;DHT22;73994;50.868;5.420;2024-02-04T11:08:56;10.30;83.00
83964;DHT22;73994;50.868;5.420;2024-02-04T11:11:24;10.30;83.90
83964;DHT22;73994;50.868;5.420;2024-02-04T11:13:55;10.20;83.20
83964;DHT22;73994;50.868;5.420;2024-02-04T11:25:36;10.30;83.20
83964;DHT22;73994;50.868;5.420;2024-02-04T11:28:06;10.20;82.70
83964;DHT22;73994;50.868;5.420;2024-02-04T11:30:35;10.30;82.90
83964;DHT22;73994;50.868;5.420;2024-02-04T11:33:05;10.30;82.30
83964;DHT22;73994;50.868;5.420;2024-02-04T11:35:34;10.30;82.70
83964;DHT22;73994;50.868;5.420;2024-02-04T11:38:01;10.30;82.50
83964;DHT22;73994;50.868;5.420;2024-02-04T11:40:37;10.30;82.20
83964;DHT22;73994;50.868;5.420;2024-02-04T11:43:06;10.30;81.80
83964;DHT22;73994;50.868;5.420;2024-02-04T11:45:32;10.30;81.60
83964;DHT22;73994;50.868;5.420;2024-02-04T11:48:01;10.30;81.60
83964;DHT22;73994;50.868;5.420;2024-02-04T11:50:28;10.30;81.90
83964;DHT22;73994;50.868;5.420;2024-02-04T11:53:08;10.30;81.20
83964;DHT22;73994;50.868;5.420;2024-02-04T11:55:35;10.40;81.10
83964;DHT22;73994;50.868;5.420;2024-02-04T11:58:02;10.40;81.20
83964;DHT22;73994;50.868;5.420;2024-02-04T12:00:29;10.40;80.90
83964;DHT22;73994;50.868;5.420;2024-02-04T12:03:08;10.40;80.60
83964;DHT22;73994;50.868;5.420;2024-02-04T12:05:37;10.50;80.60
83964;DHT22;73994;50.868;5.420;2024-02-04T12:08:07;10.50;81.20
83964;DHT22;73994;50.868;5.420;2024-02-04T12:10:34;10.40;80.90
83964;DHT22;73994;50.868;5.420;2024-02-04T12:13:04;10.40;81.30
83964;DHT22;73994;50.868;5.420;2024-02-04T12:15:32;10.40;80.70
83964;DHT22;73994;50.868;5.420;2024-02-04T12:18:10;10.30;81.20
83964;DHT22;73994;50.868;5.420;2024-02-04T12:20:37;10.30;81.50
83964;DHT22;73994;50.868;5.420;2024-02-04T12:23:04;10.30;81.50
83964;DHT22;73994;50.868;5.420;2024-02-04T12:25:35;10.30;81.80
83964;DHT22;73994;50.868;5.420;2024-02-04T12:28:02;10.30;82.60
83964;DHT22;73994;50.868;5.420;2024-02-04T12:30:29;10.20;83.00
83964;DHT22;73994;50.868;5.420;2024-02-04T12:32:58;10.20;83.10
83964;DHT22;73994;50.868;5.420;2024-02-04T12:35:27;10.20;84.00
83964;DHT22;73994;50.868;5.420;2024-02-04T12:37:57;10.10;84.20
83964;DHT22;73994;50.868;5.420;2024-02-04T12:40:27;10.10;84.30
83964;DHT22;73994;50.868;5.420;2024-02-04T12:42:54;10.10;84.50
83964;DHT22;73994;50.868;5.420;2024-02-04T12:45:21;10.10;84.20
83964;DHT22;73994;50.868;5.420;2024-02-04T12:47:50;10.10;84.70
83964;DHT22;73994;50.868;5.420;2024-02-04T12:50:16;10.10;84.90
83964;DHT22;73994;50.868;5.420;2024-02-04T12:52:47;10.10;85.40
83964;DHT22;73994;50.868;5.420;2024-02-04T12:55:26;10.10;85.20
83964;DHT22;73994;50.868;5.420;2024-02-04T12:58:09;10.10;85.30
83964;DHT22;73994;50.868;5.420;2024-02-04T13:00:36;10.10;85.60
83964;DHT22;73994;50.868;5.420;2024-02-04T13:03:07;10.10;85.50
83964;DHT22;73994;50.868;5.420;2024-02-04T13:05:39;10.20;85.40
83964;DHT22;73994;50.868;5.420;2024-02-04T13:08:05;10.20;85.30
83964;DHT22;73994;50.868;5.420;2024-02-04T13:10:36;10.20;85.00
83964;DHT22;73994;50.868;5.420;2024-02-04T13:13:10;10.20;84.80
83964;DHT22;73994;50.868;5.420;2024-02-04T13:15:42;10.20;84.60
83964;DHT22;73994;50.868;5.420;2024-02-04T13:18:12;10.30;84.90
83964;DHT22;73994;50.868;5.420;2024-02-04T13:20:41;10.40;84.70
83964;DHT22;73994;50.868;5.420;2024-02-04T13:23:08;10.40;84.60
83964;DHT22;73994;50.868;5.420;2024-02-04T13:25:34;10.40;84.80
83964;DHT22;73994;50.868;5.420;2024-02-04T13:28:00;10.30;84.20
83964;DHT22;73994;50.868;5.420;2024-02-04T13:30:25;10.40;85.00
83964;DHT22;73994;50.868;5.420;2024-02-04T13:32:52;10.30;84.50
83964;DHT22;73994;50.868;5.420;2024-02-04T13:35:17;10.30;84.10
83964;DHT22;73994;50.868;5.420;2024-02-04T13:37:47;10.30;84.30
83964;DHT22;73994;50.868;5.420;2024-02-04T13:40:14;10.30;84.10
83964;DHT22;73994;50.868;5.420;2024-02-04T13:42:41;10.30;84.50
83964;DHT22;73994;50.868;5.420;2024-02-04T13:45:07;10.30;83.70
83964;DHT22;73994;50.868;5.420;2024-02-04T13:47:34;10.40;83.90
83964;DHT22;73994;50.868;5.420;2024-02-04T13:50:00;10.40;83.60
83964;DHT22;73994;50.868;5.420;2024-02-04T13:52:26;10.40;84.00
83964;DHT22;73994;50.868;5.420;2024-02-04T13:54:52;10.50;83.30
83964;DHT22;73994;50.868;5.420;2024-02-04T13:57:18;10.50;83.20
83964;DHT22;73994;50.868;5.420;2024-02-04T13:59:43;10.50;83.60
83964;DHT22;73994;50.868;5.420;2024-02-04T14:02:09;10.50;82.60
83964;DHT22;73994;50.868;5.420;2024-02-04T14:04:35;10.60;82.60
83964;DHT22;73994;50.868;5.420;2024-02-04T14:07:01;10.60;82.70
83964;DHT22;73994;50.868;5.420;2024-02-04T14:09:27;10.60;82.60
83964;DHT22;73994;50.868;5.420;2024-02-04T14:11:53;10.50;82.50
83964;DHT22;73994;50.868;5.420;2024-02-04T14:14:22;10.50;82.90
83964;DHT22;73994;50.868;5.420;2024-02-04T14:16:47;10.50;83.00
83964;DHT22;73994;50.868;5.420;2024-02-04T14:19:13;10.50;83.00
83964;DHT22;73994;50.868;5.420;2024-02-04T14:21:40;10.50;83.00
83964;DHT22;73994;50.868;5.420;2024-02-04T14:24:06;10.50;83.50
83964;DHT22;73994;50.868;5.420;2024-02-04T14:26:32;10.40;83.90
83964;DHT22;73994;50.868;5.420;2024-02-04T14:28:58;10.40;84.10
83964;DHT22;73994;50.868;5.420;2024-02-04T14:31:24;10.40;84.20
83964;DHT22;73994;50.868;5.420;2024-02-04T14:33:50;10.40;84.10
83964;DHT22;73994;50.868;5.420;2024-02-04T14:36:16;10.40;83.70
83964;DHT22;73994;50.868;5.420;2024-02-04T14:38:42;10.50;83.10
83964;DHT22;73994;50.868;5.420;2024-02-04T14:41:07;10.50;83.10
83964;DHT22;73994;50.868;5.420;2024-02-04T14:43:33;10.60;83.20
83964;DHT22;73994;50.868;5.420;2024-02-04T14:45:59;10.60;83.20
83964;DHT22;73994;50.868;5.420;2024-02-04T14:48:25;10.60;82.90
83964;DHT22;73994;50.868;5.420;2024-02-04T14:50:50;10.60;83.00
83964;DHT22;73994;50.868;5.420;2024-02-04T14:53:17;10.60;83.20
83964;DHT22;73994;50.868;5.420;2024-02-04T14:55:42;10.60;83.20
83964;DHT22;73994;50.868;5.420;2024-02-04T14:58:09;10.50;82.90
83964;DHT22;73994;50.868;5.420;2024-02-04T15:00:34;10.50;83.00
83964;DHT22;73994;50.868;5.420;2024-02-04T15:03:00;10.40;83.60
83964;DHT22;73994;50.868;5.420;2024-02-04T15:05:26;10.40;83.30
83964;DHT22;73994;50.868;5.420;2024-02-04T15:07:52;10.30;83.60
83964;DHT22;73994;50.868;5.420;2024-02-04T15:10:18;10.30;84.00
83964;DHT22;73994;50.868;5.420;2024-02-04T15:12:44;10.30;83.90
83964;DHT22;73994;50.868;5.420;2024-02-04T15:15:11;10.30;83.90
83964;DHT22;73994;50.868;5.420;2024-02-04T15:17:37;10.30;83.70
83964;DHT22;73994;50.868;5.420;2024-02-04T15:20:03;10.20;83.90
83964;DHT22;73994;50.868;5.420;2024-02-04T15:22:29;10.20;83.70
83964;DHT22;73994;50.868;5.420;2024-02-04T15:24:56;10.20;84.30
83964;DHT22;73994;50.868;5.420;2024-02-04T15:27:24;10.10;84.40
83964;DHT22;73994;50.868;5.420;2024-02-04T15:29:54;10.10;84.80
83964;DHT22;73994;50.868;5.420;2024-02-04T15:32:21;10.10;84.50
83964;DHT22;73994;50.868;5.420;2024-02-04T15:34:47;10.10;84.70
83964;DHT22;73994;50.868;5.420;2024-02-04T15:37:13;10.10;84.40
83964;DHT22;73994;50.868;5.420;2024-02-04T15:39:39;10.10;84.50
83964;DHT22;73994;50.868;5.420;2024-02-04T15:42:05;10.10;84.20
83964;DHT22;73994;50.868;5.420;2024-02-04T15:44:32;10.10;83.80
83964;DHT22;73994;50.868;5.420;2024-02-04T15:47:08;10.10;83.60